Terminal Aerodrome Forecast
Issued by NWS

Current Version | Previous Version | Text Only | Print | Product List | Glossary Off
Versions: 1 2 3 4 5 6 7 8 9 10 11 12 13 14 15 16 17 18 19 20 21 22

506
FTUS41 KPBZ 151127
TAFHLG
TAF
KHLG 151127Z 1512/1612 10005KT P6SM SCT250
     FM151600 17010KT P6SM BKN150
     FM152300 19010KT 5SM -SHRA OVC035
     FM160200 21012KT 3SM -SHRA OVC015
     FM160500 24012KT P6SM OVC008
     FM160700 24012KT P6SM OVC010
     FM160900 25012KT P6SM OVC025=

USA.gov is the U.S. government's official web portal to all federal, state and local government web resources and services.